ADDS METAR Data INFO
IDs: Format: Raw Decoded Include TAF

Data at: 0705 UTC 19 Oct 2017

PABR 190653Z AUTO 18019G25KT 1 1/4SM R07/6000VP6000FT -SN BR OVC024 M08/M09 A2931 RMK AO2 SNB23E43B47 SLP926 P0000 T10831094 TSNO
PABR 190649Z AUTO 18019G25KT 2SM -SN BR OVC028 M08/M09 A2931 RMK AO2 SNB23E43B47 P0000 TSNO
PABR 190646Z AUTO 18019G25KT 4SM BR OVC033 M08/M09 A2931 RMK AO2 SNB23E43 P0000 T10831094 TSNO
PABR 190636Z AUTO 18019KT 2 1/2SM -SN BR OVC031 M08/M09 A2931 RMK AO2 SNB23 P0000 T10831094 TSNO
PABR 190553Z 18019KT 6SM BLSN OVC050 M08/M10 A2933 RMK AO2 SLP932 60001 T10831100 11078 21094 57023
PABR 190453Z 19019KT 5SM BLSN BKN060 OVC070 M09/M10 A2935 RMK AO2 SLP939 T10891100
PABR 190353Z 19018KT 5SM BLSN SCT010 OVC027 M09/M10 A2937 RMK AO2 SNE39 SLP948 P0001 T10891100
PABR 190341Z 19017KT 4SM BLSN SCT010 OVC027 M09/M10 A2938 RMK AO2 SNE39 P0001 T10891100
PABR 190304Z 19019G24KT 1SM R07/5500VP6000FT -SN BLSN VV016 M08/M09 A2939 RMK AO2 P0000 T10781089
PABR 190253Z 19019KT 2SM R07/6000VP6000FT -SN BR BKN022 OVC038 M08/M09 A2940 RMK AO2 SLP955 P0000 60000 T10831094 56028
PABR 190213Z 20017KT 3SM -SN BR FEW021 FEW026 OVC032 M08/M10 A2941 RMK AO2 CIG 027 NE P0000 T10831100
PABR 190204Z 19016KT 2SM -SN BR SCT019 OVC029 M08/M09 A2942 RMK AO2 CIG 024 NE P0000 T10831094
PABR 190158Z 20017KT 3SM -SN BR FEW019 OVC026 M08/M09 A2942 RMK AO2 CIG 021 NE P0000 T10831094
PABR 190153Z 19017KT 2 1/2SM -SN BR BKN018 OVC026 M08/M09 A2942 RMK AO2 SLP964 P0000 T10831094
PABR 190149Z 19017KT 2SM -SN BR BKN020 OVC026 M08/M09 A2942 RMK AO2 VIS 1 1/4 NE P0000
PABR 190131Z 19015KT 3/4SM R07/5000VP6000FT -SN BR OVC022 M08/M10 A2943 RMK AO2 P0000 T10831100
PABR 190055Z 19014KT 2SM -SN BR FEW022 BKN030 OVC045 M09/M10 A2945 RMK AO2 P0000 T10891100
PABR 190053Z 19016KT 2SM R07/5500VP6000FT -SN BR BKN027 OVC043 M09/M10 A2945 RMK AO2 SLP974 P0000 T10891100
PABR 190000Z 20016KT 3SM -SN BR BKN027 OVC034 M09/M11 A2947 RMK AO2 VIS 2 1/2 NE P0000 T10891106
PABR 182353Z 20013KT 2SM -SN BR BKN025 OVC033 M09/M11 A2948 RMK AO2 SNB16 SLP984 P0000 60000 T10891106 11067 21094 58014
PABR 182338Z 20014KT 2SM R07/5000VP6000FT -SN BR OVC027 M09/M11 A2948 RMK AO2 SNB16 P0000 T10891106
PABR 182253Z 19007KT 10SM BKN037 OVC055 M09/M12 A2950 RMK AO2 SNE01B17E38 SLP990 P0000 T10891117
PABR 182153Z 12003KT 8SM -SN FEW008 BKN028 BKN044 M08/M12 A2951 RMK AO2 SNE16B37 SLP995 P0000 T10781117
PABR 182053Z 35003KT 9SM -SN BKN044 M07/M12 A2952 RMK AO2 SLP998 P0000 60000 T10721122 58001
PABR 181953Z 01012KT 8SM -SN FEW029 BKN041 OVC055 M08/M12 A2953 RMK AO2 SLP000 P0000 T10781117 $
PABR 181853Z 35010KT 9SM -SN FEW022 BKN045 OVC140 M07/M13 A2953 RMK AO2 SLP000 P0000 T10721128 $
PABR 181832Z 36011KT 3SM -SN BKN026 OVC037 M08/M11 A2953 RMK AO2 P0000 T10781111 $
PABR 181830Z 36011KT 2 1/2SM -SN BKN027 BKN037 OVC055 M08/M11 A2953 RMK AO2 VIS 1 3/4V4 P0000 T10781111 $
PABR 181753Z 03014KT 9SM -SN BKN045 M07/M14 A2952 RMK AO2 SLP999 P0000 60000 T10721139 11067 21078 58001 $
PABR 181653Z 03014KT 9SM -SN FEW026 BKN044 OVC055 M07/M13 A2953 RMK AO2 UPE1554SNB1554 SLP000 P0000 T10721133 $
PABR 181553Z 01017G22KT 9SM UP FEW028 BKN038 OVC050 M07/M12 A2953 RMK AO2 UPB43SNE04B20E43 SLP001 P0000 T10721122 $
PABR 181453Z 01015KT 6SM -SN FEW029 BKN037 OVC046 M07/M12 A2953 RMK AO2 UPB07E09SNE07B33 SLP000 P0000 60000 T10721122 51009 $
PABR 181353Z 02014KT 4SM -SN BKN031 OVC042 M08/M12 A2952 RMK AO2 PK WND 01028/1319 UPE03B32E33SNB16E31B33 SLP999 P0000 T10781117 $
PABR 181253Z AUTO 01019G27KT 6SM UP FEW023 BKN030 OVC055 M07/M12 A2951 RMK AO2 PK WND 01029/1234 UPB52SNE52 SLP994 P0000 T10721117 TSNO $
PABR 181250Z AUTO 36022G27KT 3SM -SN BKN026 BKN033 OVC050 M07/M12 A2951 RMK AO2 PK WND 01029/1234 P0000 TSNO $
PABR 181230Z AUTO 02017G25KT 1 1/4SM R07/5500VP6000FT -SN BR BKN023 BKN033 OVC055 M07/M09 A2951 RMK AO2 PK WND 01027/1210 VIS 3/4V4 P0000 T10721094 TSNO $
PABR 181221Z AUTO 02019KT 2SM -SN FEW020 BKN028 OVC055 M07/M11 A2950 RMK AO2 PK WND 01027/1210 P0000 T10721106 TSNO $
PABR 181213Z AUTO 36019G27KT 1 3/4SM -SN FEW021 BKN031 OVC055 M07/M10 A2951 RMK AO2 PK WND 01027/1210 VIS 3/4V4 P0000 T10721100 TSNO $
PABR 181205Z AUTO 01020G25KT 5SM -SN SCT021 BKN031 OVC046 M07/M11 A2950 RMK AO2 P0000 T10671106 TSNO $
PABR 181153Z AUTO 03021G28KT 2SM R07/6000VP6000FT -SN BKN024 BKN029 OVC045 M07/M11 A2950 RMK AO2 PK WND 01030/1117 VIS 1V4 SLP990 P0000 60002 70010 T10721106 11050 21072 53006 TSNO $
PABR 181138Z AUTO 02018KT 3SM -SN FEW018 BKN028 OVC047 M07/M11 A2950 RMK AO2 PK WND 01030/1117 P0000 T10671106 TSNO $
PABR 181105Z AUTO 01022G29KT 1 3/4SM R07/5000VP6000FT -SN FEW021 BKN026 OVC042 M07/M10 A2950 RMK AO2 PK WND 02029/1102 VIS 1/2V5 P0000 T10721100 TSNO $
PABR 181101Z AUTO 02017G27KT 2SM -SN FEW019 BKN031 OVC042 M07/M10 A2949 RMK AO2 P0000 T10721100 TSNO $
PABR 181053Z AUTO 01020G28KT 1 1/2SM -SN FEW019 SCT026 OVC034 M07/M09 A2949 RMK AO2 PK WND 02030/1000 VIS 1 1/4V3 SLP988 P0000 T10671094 TSNO $
PABR 181034Z AUTO 01023G27KT 6SM -SN FEW024 SCT031 OVC040 M07/M12 A2949 RMK AO2 PK WND 02030/1000 CIG 028 NE P0000 T10671117 TSNO $
PABR 181023Z AUTO 01023G29KT 2SM -SN SCT024 BKN038 OVC048 M07/M10 A2948 RMK AO2 PK WND 02030/1000 VIS 1V4 CIG 021 NE P0000 T10671100 TSNO $
PABR 181015Z AUTO 02020G26KT 3SM -SN FEW024 BKN034 OVC048 M07/M10 A2948 RMK AO2 PK WND 02030/1000 VIS 1 NE CIG 019 NE P0000 T10671100 TSNO $
PABR 181011Z AUTO 03022G29KT 2 1/2SM -SN FEW021 BKN028 OVC048 M07/M09 A2949 RMK AO2 PK WND 02030/1000 VIS 1 NE CIG 017 NE P0000 T10671094 TSNO $
PABR 181000Z AUTO 02022G30KT 3SM -SN BKN023 BKN037 OVC046 M07/M10 A2948 RMK AO2 PK WND 02030/1000 VIS 1 3/4 NE P0000 T10671100 TSNO $
PABR 180953Z AUTO 02020G27KT 1 1/4SM -SN BR BKN018 BKN024 OVC033 M07/M09 A2948 RMK AO2 PK WND 01029/0910 VIS 3/4V2 1/2 UPB22E25SNE22B25 SLP985 P0001 T10721094 TSNO $
PABR 180948Z AUTO 01020G27KT 1SM R07/P6000FT -SN BR FEW012 BKN020 OVC040 M07/M09 A2948 RMK AO2 PK WND 01029/0910 UPB22E25SNE22B25 P0000 TSNO $
PABR 180939Z AUTO 01020G28KT 3/4SM R07/4500VP6000FT -SN BR BKN016 OVC027 M07/M09 A2948 RMK AO2 PK WND 01029/0910 UPB22E25SNE22B25 P0000 T10721089 TSNO $
PABR 180928Z AUTO 01017G26KT 1 3/4SM -SN BR FEW018 BKN025 OVC040 M07/M09 A2948 RMK AO2 PK WND 01029/0910 VIS 1V5 UPB22E25SNE22B25 P0000 T10671089 TSNO $
PABR 180922Z AUTO 01021KT 3SM UP FEW016 BKN027 OVC040 M07/M09 A2947 RMK AO2 PK WND 01029/0910 VIS 2 NE UPB22SNE22 P0000 T10671094 TSNO $
PABR 180903Z AUTO 01019G30KT 1SM R07/5500VP6000FT -SN BR FEW015 BKN024 OVC041 M07/M09 A2947 RMK AO2 P0000 T10671089 TSNO $
PABR 180853Z AUTO 02017G29KT 2SM -SN FEW021 BKN026 OVC042 M07/M09 A2947 RMK AO2 PK WND 02032/0832 VIS 1 1/2V4 SLP980 P0001 60001 T10671094 410171067 51021 TSNO $
PABR 180850Z AUTO 02020G29KT 2SM -SN FEW022 BKN027 OVC043 M07/M09 A2947 RMK AO2 PK WND 02032/0832 P0000 TSNO $
PABR 180819Z AUTO 03025G29KT 1 3/4SM -SN FEW022 BKN027 OVC040 M06/M09 A2945 RMK AO2 PK WND 03032/0800 P0000 T10611089 TSNO $
PABR 180814Z AUTO 03022G29KT 3SM -SN FEW022 BKN029 OVC040 M06/M09 A2945 RMK AO2 PK WND 03032/0800 P0000 T10561094 TSNO $
PABR 180808Z AUTO 03022G32KT 2SM -SN FEW019 BKN031 OVC038 M06/M09 A2945 RMK AO2 PK WND 03032/0800 P0000 T10561089 TSNO $
PABR 180753Z AUTO 03025G33KT 1 1/2SM -SN FEW018 BKN025 OVC035 M06/M08 A2944 RMK AO2 PK WND 02035/0703 SLP971 P0000 T10561083 TSNO $
PABR 180739Z AUTO 02024G31KT 2 1/2SM -SN BKN029 OVC039 M06/M08 A2943 RMK AO2 PK WND 02035/0703 P0000 T10561083 TSNO $
PABR 180736Z AUTO 03022G30KT 3SM -SN FEW027 OVC036 M06/M09 A2944 RMK AO2 PK WND 02035/0703 P0000 T10561089 TSNO $
PABR 180710Z AUTO 03026G35KT 2SM -SN FEW019 FEW027 OVC035 M06/M08 A2942 RMK AO2 PK WND 02035/0703 P0000 T10561083 TSNO $
PABR 180653Z AUTO 03030G39KT 1 3/4SM -SN FEW018 SCT025 OVC034 M05/M08 A2941 RMK AO2 PK WND 03039/0645 UPB0555E0556SNE0555B0556 SLP959 P0000 T10501078 TSNO $
PABR 180630Z AUTO 03031G39KT 1 1/4SM -SN BR FEW012 BKN020 OVC034 M05/M07 A2939 RMK AO2 PK WND 03039/0624 UPB0555E0556SNE0555B0556 P0000 T10501072 TSNO $
PABR 180618Z AUTO 04027G36KT 3/4SM R07/5000VP6000FT -SN BR BKN017 BKN026 OVC046 M05/M06 A2939 RMK AO2 PK WND 03036/0609 UPB0555E0556SNE0555B0556 P0000 T10501061 TSNO $
PABR 180600Z AUTO 03029G36KT 1 3/4SM -SN BR SCT021 BKN035 OVC055 M04/M06 A2937 RMK AO2 PK WND 03036/0558 UPB0555E0556SNE0555B0556 P0000 T10391061 TSNO $
PABR 180553Z 03022G35KT 3SM -SN BLSN FEW029 BKN036 OVC038 M03/M07 A2937 RMK AO2 PK WND 03036/0508 SLP946 P0000 60001 T10331072 11017 21039 53010 $
PABR 180453Z 36016G30KT 3SM -SN FEW029 BKN036 BKN047 M02/M05 A2933 RMK AO2 PK WND 36030/0446 SLP932 P0000 T10221050 $
PABR 180353Z 36014KT 7SM -SN FEW027 SCT046 OVC055 M03/M07 A2934 RMK AO2 SNB10E25B51 SLP936 P0000 T10281067 $
PABR 180253Z 32011KT 10SM FEW022 FEW031 OVC055 M02/M06 A2934 RMK AO2 SLP936 60001 T10221061 56007 $
PABR 180153Z 34012KT 10SM FEW029 BKN036 OVC060 M02/M07 A2934 RMK AO2 SNE42 SLP938 P0000 T10221067 $
PABR 180138Z 35010KT 2SM R07/4500VP6000FT -SN BKN023 BKN028 OVC055 M03/M06 A2935 RMK AO2 P0000 T10281056 $
PABR 180127Z 34014KT 3/4SM R07/4500VP6000FT SN BR SCT012 BKN023 OVC028 M03/M05 A2935 RMK AO2 P0000 T10281050 $
PABR 180123Z 34014KT 2SM R07/4500VP6000FT SN FEW013 BKN023 OVC028 M02/M05 A2935 RMK AO2 P0000 T10221050 $
PABR 180053Z 01011KT 9SM -SN SCT037 BKN049 OVC070 M02/M05 A2935 RMK AO2 SLP939 P0001 T10221050 $
PABR 180015Z 35013KT 5SM -SN BLSN FEW008 BKN049 OVC070 M02/M03 A2935 RMK AO2 P0001 T10221033 $
PABR 180011Z 35008KT 1 1/4SM R07/4000VP6000FT -SN BLSN SCT008 BKN049 OVC070 M03/M03 A2936 RMK AO2 VIS 1/4V1 P0001 T10281033 $
PABR 172353Z 32014KT 1/2SM R07/2000V3000FT -SN BLSN SCT008 BKN049 OVC070 M02/M04 A2936 RMK AO2 SLP943 VIS 1/4V1 P0001 60006 T10221039 11017 21028 57005 $
PABR 172347Z 31016KT 1SM R07/2600VP6000FT -SN BLSN SCT008 BKN049 OVC070 M02/M04 A2936 RMK AO2 VIS 2/4 P0000 $
PABR 172253Z 35012KT 3SM -SN SCT014 BKN025 OVC070 M02/M04 A2936 RMK AO2 SNE22B48 CIG 020 NE SLP944 VIS 2V4 P0000 T10171044 $
PABR 172201Z 32009KT 3SM -SN BR FEW012 BKN029 OVC048 M02/M03 A2937 RMK AO2 P0000 T10221033 $
PABR 172153Z 32012KT 1SM R07/5000VP6000FT -SN BR FEW010 SCT015 OVC024 M02/M04 A2937 RMK AO2 CIG 018 NE SLP947 P0000 T10221039 $
PABR 172137Z 31014KT 2 1/2SM -SN BR FEW010 SCT016 OVC035 M02/M04 A2937 RMK AO2 VIS 2V4 CIG 025 NE P0000 T10171039 $
PABR 172115Z 32010KT 3SM -SN BR FEW007 SCT021 OVC032 M02/M04 A2937 RMK AO2 P0000 T10221039 $
PABR 172100Z 33012KT 1 1/2SM -SN FEW009 BKN035 OVC048 M02/M04 A2937 RMK AO2 CIG 028 NE P0000 T10171044 $
PABR 172053Z 32012KT 6SM -SN SCT020 SCT038 OVC050 M02/M05 A2938 RMK AO2 SNB1958E23B53 CIG 039 NE SLP948 P0001 60005 T10171050 58005 $
PABR 172015Z 32010KT 3SM -SN BR FEW016 BKN022 OVC034 M02/M04 A2938 RMK AO2 SNB1958 P0001 T10221039 $
PABR 172008Z 32010KT 1 1/4SM R07/5500VP6000FT -SN BR FEW016 BKN022 OVC048 M02/M04 A2938 RMK AO2 SNB1958 P0000 T10221039 $
PABR 171953Z 32013KT 9SM BKN018 BKN026 OVC120 M02/M04 A2938 RMK AO2 SNE25 SLP951 P0002 T10221044 $
PABR 171934Z 32012KT 8SM FEW014 SCT019 BKN030 M02/M04 A2938 RMK AO2 SNE25 P0002 T10221044 $
PABR 171913Z 33008KT 3SM -SN BR FEW004 OVC022 M03/M04 A2939 RMK AO2 P0002 T10281039 $
PABR 171909Z 33008KT 1SM R07/4500VP6000FT -SN BR FEW005 OVC018 M03/M04 A2939 RMK AO2 P0002 T10281039 $
PABR 171906Z 33009KT 1/2SM R07/2600VP6000FT -SN FZFG FEW006 OVC015 M03/M03 A2939 RMK AO2 P0002 T10281033 $